sensor_id;sensor_type;location;lat;lon;timestamp;P1;durP1;ratioP1;P2;durP2;ratioP2
48207;SDS011;33997;53.278;9.708;2023-03-01T00:02:16;17.30;;;8.10;;
48207;SDS011;33997;53.278;9.708;2023-03-01T00:04:41;15.10;;;7.57;;
48207;SDS011;33997;53.278;9.708;2023-03-01T00:07:07;21.48;;;8.63;;
48207;SDS011;33997;53.278;9.708;2023-03-01T00:09:32;13.90;;;7.35;;
48207;SDS011;33997;53.278;9.708;2023-03-01T00:11:58;15.48;;;7.85;;
48207;SDS011;33997;53.278;9.708;2023-03-01T00:14:23;13.15;;;6.95;;
48207;SDS011;33997;53.278;9.708;2023-03-01T00:16:49;11.80;;;6.93;;
48207;SDS011;33997;53.278;9.708;2023-03-01T00:19:15;13.50;;;6.72;;
48207;SDS011;33997;53.278;9.708;2023-03-01T00:21:42;13.10;;;6.93;;
48207;SDS011;33997;53.278;9.708;2023-03-01T00:24:08;13.32;;;6.63;;
48207;SDS011;33997;53.278;9.708;2023-03-01T00:26:35;17.77;;;7.10;;
48207;SDS011;33997;53.278;9.708;2023-03-01T00:29:01;13.68;;;6.13;;
48207;SDS011;33997;53.278;9.708;2023-03-01T00:31:27;12.73;;;6.40;;
48207;SDS011;33997;53.278;9.708;2023-03-01T00:33:56;10.32;;;6.07;;
48207;SDS011;33997;53.278;9.708;2023-03-01T00:36:27;10.57;;;5.75;;
48207;SDS011;33997;53.278;9.708;2023-03-01T00:38:55;9.60;;;5.50;;
48207;SDS011;33997;53.278;9.708;2023-03-01T00:41:21;12.05;;;6.18;;
48207;SDS011;33997;53.278;9.708;2023-03-01T00:43:47;10.40;;;5.70;;
48207;SDS011;33997;53.278;9.708;2023-03-01T00:46:17;15.82;;;5.70;;
48207;SDS011;33997;53.278;9.708;2023-03-01T00:48:47;11.93;;;5.90;;
48207;SDS011;33997;53.278;9.708;2023-03-01T00:51:20;11.85;;;6.53;;
48207;SDS011;33997;53.278;9.708;2023-03-01T00:53:52;10.75;;;5.53;;
48207;SDS011;33997;53.278;9.708;2023-03-01T00:56:19;11.65;;;6.20;;
48207;SDS011;33997;53.278;9.708;2023-03-01T00:58:45;12.82;;;5.82;;
48207;SDS011;33997;53.278;9.708;2023-03-01T01:01:12;11.02;;;5.18;;
48207;SDS011;33997;53.278;9.708;2023-03-01T01:03:50;11.40;;;5.63;;
48207;SDS011;33997;53.278;9.708;2023-03-01T01:06:21;10.27;;;6.10;;
48207;SDS011;33997;53.278;9.708;2023-03-01T01:08:49;11.90;;;5.57;;
48207;SDS011;33997;53.278;9.708;2023-03-01T01:11:15;13.35;;;5.55;;
48207;SDS011;33997;53.278;9.708;2023-03-01T01:13:41;11.80;;;5.88;;
48207;SDS011;33997;53.278;9.708;2023-03-01T01:16:07;11.15;;;6.35;;
48207;SDS011;33997;53.278;9.708;2023-03-01T01:18:32;14.65;;;6.72;;
48207;SDS011;33997;53.278;9.708;2023-03-01T01:21:03;11.25;;;6.10;;
48207;SDS011;33997;53.278;9.708;2023-03-01T01:23:33;11.05;;;6.25;;
48207;SDS011;33997;53.278;9.708;2023-03-01T01:26:09;17.45;;;5.75;;
48207;SDS011;33997;53.278;9.708;2023-03-01T01:28:40;11.55;;;5.80;;
48207;SDS011;33997;53.278;9.708;2023-03-01T01:31:06;11.82;;;5.93;;
48207;SDS011;33997;53.278;9.708;2023-03-01T01:33:33;12.18;;;6.85;;
48207;SDS011;33997;53.278;9.708;2023-03-01T01:35:59;10.95;;;5.38;;
48207;SDS011;33997;53.278;9.708;2023-03-01T01:38:24;14.27;;;5.60;;
48207;SDS011;33997;53.278;9.708;2023-03-01T01:40:50;12.38;;;5.78;;
48207;SDS011;33997;53.278;9.708;2023-03-01T01:43:26;13.85;;;5.88;;
48207;SDS011;33997;53.278;9.708;2023-03-01T01:46:04;12.63;;;6.13;;
48207;SDS011;33997;53.278;9.708;2023-03-01T01:48:39;11.25;;;5.28;;
48207;SDS011;33997;53.278;9.708;2023-03-01T01:51:11;12.27;;;5.50;;
48207;SDS011;33997;53.278;9.708;2023-03-01T01:53:42;14.73;;;6.20;;
48207;SDS011;33997;53.278;9.708;2023-03-01T01:56:13;11.50;;;5.43;;
48207;SDS011;33997;53.278;9.708;2023-03-01T01:58:40;12.88;;;6.07;;
48207;SDS011;33997;53.278;9.708;2023-03-01T02:01:08;9.30;;;5.05;;
48207;SDS011;33997;53.278;9.708;2023-03-01T02:03:34;10.88;;;5.50;;
48207;SDS011;33997;53.278;9.708;2023-03-01T02:06:10;13.77;;;5.97;;
48207;SDS011;33997;53.278;9.708;2023-03-01T02:08:57;10.40;;;5.05;;
48207;SDS011;33997;53.278;9.708;2023-03-01T02:11:27;13.52;;;5.50;;
48207;SDS011;33997;53.278;9.708;2023-03-01T02:13:55;13.18;;;5.75;;
48207;SDS011;33997;53.278;9.708;2023-03-01T02:16:20;12.98;;;5.43;;
48207;SDS011;33997;53.278;9.708;2023-03-01T02:18:46;13.80;;;5.65;;
48207;SDS011;33997;53.278;9.708;2023-03-01T02:23:59;13.95;;;5.85;;
48207;SDS011;33997;53.278;9.708;2023-03-01T02:26:42;13.98;;;6.75;;
48207;SDS011;33997;53.278;9.708;2023-03-01T02:29:13;12.23;;;5.80;;
48207;SDS011;33997;53.278;9.708;2023-03-01T02:31:38;13.73;;;5.68;;
48207;SDS011;33997;53.278;9.708;2023-03-01T02:34:17;11.10;;;5.57;;
48207;SDS011;33997;53.278;9.708;2023-03-01T02:36:53;13.38;;;5.40;;
48207;SDS011;33997;53.278;9.708;2023-03-01T02:39:33;12.48;;;4.75;;
48207;SDS011;33997;53.278;9.708;2023-03-01T02:42:06;10.07;;;5.07;;
48207;SDS011;33997;53.278;9.708;2023-03-01T02:44:35;13.15;;;5.35;;
48207;SDS011;33997;53.278;9.708;2023-03-01T02:47:01;11.38;;;5.03;;
48207;SDS011;33997;53.278;9.708;2023-03-01T02:49:29;8.93;;;4.78;;
48207;SDS011;33997;53.278;9.708;2023-03-01T02:54:59;9.63;;;4.20;;
48207;SDS011;33997;53.278;9.708;2023-03-01T02:57:29;9.77;;;3.67;;
48207;SDS011;33997;53.278;9.708;2023-03-01T02:59:56;9.45;;;4.75;;
48207;SDS011;33997;53.278;9.708;2023-03-01T03:02:25;8.98;;;4.38;;
48207;SDS011;33997;53.278;9.708;2023-03-01T03:05:07;10.13;;;4.43;;
48207;SDS011;33997;53.278;9.708;2023-03-01T03:07:35;10.25;;;4.82;;
48207;SDS011;33997;53.278;9.708;2023-03-01T03:10:03;11.02;;;4.70;;
48207;SDS011;33997;53.278;9.708;2023-03-01T03:12:31;10.45;;;4.43;;
48207;SDS011;33997;53.278;9.708;2023-03-01T03:14:56;11.07;;;4.25;;
48207;SDS011;33997;53.278;9.708;2023-03-01T03:17:22;11.20;;;4.22;;
48207;SDS011;33997;53.278;9.708;2023-03-01T03:19:47;8.70;;;4.32;;
48207;SDS011;33997;53.278;9.708;2023-03-01T03:22:13;11.15;;;4.78;;
48207;SDS011;33997;53.278;9.708;2023-03-01T03:24:39;13.90;;;4.57;;
48207;SDS011;33997;53.278;9.708;2023-03-01T03:27:05;12.85;;;5.35;;
48207;SDS011;33997;53.278;9.708;2023-03-01T03:29:31;7.30;;;3.72;;
48207;SDS011;33997;53.278;9.708;2023-03-01T03:31:57;9.25;;;3.90;;
48207;SDS011;33997;53.278;9.708;2023-03-01T03:34:22;10.43;;;4.30;;
48207;SDS011;33997;53.278;9.708;2023-03-01T03:36:52;10.07;;;4.90;;
48207;SDS011;33997;53.278;9.708;2023-03-01T03:39:21;8.88;;;4.50;;
48207;SDS011;33997;53.278;9.708;2023-03-01T03:41:48;8.75;;;4.72;;
48207;SDS011;33997;53.278;9.708;2023-03-01T03:44:13;9.75;;;4.40;;
48207;SDS011;33997;53.278;9.708;2023-03-01T03:46:38;7.57;;;4.45;;
48207;SDS011;33997;53.278;9.708;2023-03-01T03:49:04;7.90;;;4.20;;
48207;SDS011;33997;53.278;9.708;2023-03-01T03:51:29;9.95;;;4.40;;
48207;SDS011;33997;53.278;9.708;2023-03-01T03:53:55;12.05;;;4.80;;
48207;SDS011;33997;53.278;9.708;2023-03-01T03:56:20;11.32;;;4.95;;
48207;SDS011;33997;53.278;9.708;2023-03-01T03:58:51;9.82;;;4.72;;
48207;SDS011;33997;53.278;9.708;2023-03-01T04:01:17;8.18;;;4.25;;
48207;SDS011;33997;53.278;9.708;2023-03-01T04:03:42;12.13;;;4.88;;
48207;SDS011;33997;53.278;9.708;2023-03-01T04:06:11;9.30;;;4.40;;
48207;SDS011;33997;53.278;9.708;2023-03-01T04:08:38;10.95;;;5.10;;
48207;SDS011;33997;53.278;9.708;2023-03-01T04:11:04;7.78;;;4.07;;
48207;SDS011;33997;53.278;9.708;2023-03-01T04:13:49;8.25;;;4.05;;
48207;SDS011;33997;53.278;9.708;2023-03-01T04:16:15;8.77;;;4.10;;
48207;SDS011;33997;53.278;9.708;2023-03-01T04:18:41;10.35;;;4.30;;
48207;SDS011;33997;53.278;9.708;2023-03-01T04:21:06;7.45;;;3.90;;
48207;SDS011;33997;53.278;9.708;2023-03-01T04:23:32;6.47;;;3.60;;
48207;SDS011;33997;53.278;9.708;2023-03-01T04:25:57;7.80;;;4.38;;
48207;SDS011;33997;53.278;9.708;2023-03-01T04:30:49;7.75;;;4.10;;
48207;SDS011;33997;53.278;9.708;2023-03-01T04:33:16;10.52;;;4.35;;
48207;SDS011;33997;53.278;9.708;2023-03-01T04:35:41;8.00;;;4.13;;
48207;SDS011;33997;53.278;9.708;2023-03-01T04:38:07;6.78;;;3.83;;
48207;SDS011;33997;53.278;9.708;2023-03-01T04:40:33;6.32;;;3.70;;
48207;SDS011;33997;53.278;9.708;2023-03-01T04:42:59;8.88;;;4.35;;
48207;SDS011;33997;53.278;9.708;2023-03-01T04:45:25;7.90;;;4.75;;
48207;SDS011;33997;53.278;9.708;2023-03-01T04:47:52;10.82;;;4.55;;
48207;SDS011;33997;53.278;9.708;2023-03-01T04:50:18;8.77;;;4.53;;
48207;SDS011;33997;53.278;9.708;2023-03-01T04:52:48;8.10;;;4.35;;
48207;SDS011;33997;53.278;9.708;2023-03-01T04:55:14;7.82;;;4.13;;
48207;SDS011;33997;53.278;9.708;2023-03-01T04:57:39;8.30;;;4.57;;
48207;SDS011;33997;53.278;9.708;2023-03-01T05:00:06;12.18;;;4.22;;
48207;SDS011;33997;53.278;9.708;2023-03-01T05:02:55;11.45;;;4.13;;
48207;SDS011;33997;53.278;9.708;2023-03-01T05:05:23;7.75;;;4.18;;
48207;SDS011;33997;53.278;9.708;2023-03-01T05:08:00;9.52;;;4.65;;
48207;SDS011;33997;53.278;9.708;2023-03-01T05:10:34;8.70;;;4.55;;
48207;SDS011;33997;53.278;9.708;2023-03-01T05:13:01;7.10;;;3.78;;
48207;SDS011;33997;53.278;9.708;2023-03-01T05:15:28;9.50;;;3.90;;
48207;SDS011;33997;53.278;9.708;2023-03-01T05:17:55;11.98;;;5.72;;
48207;SDS011;33997;53.278;9.708;2023-03-01T05:20:26;9.13;;;4.05;;
48207;SDS011;33997;53.278;9.708;2023-03-01T05:22:54;8.95;;;4.68;;
48207;SDS011;33997;53.278;9.708;2023-03-01T05:25:21;10.63;;;4.90;;
48207;SDS011;33997;53.278;9.708;2023-03-01T05:27:47;12.73;;;5.50;;
48207;SDS011;33997;53.278;9.708;2023-03-01T05:30:13;8.45;;;4.60;;
48207;SDS011;33997;53.278;9.708;2023-03-01T05:32:40;13.60;;;5.43;;
48207;SDS011;33997;53.278;9.708;2023-03-01T05:35:06;13.02;;;5.88;;
48207;SDS011;33997;53.278;9.708;2023-03-01T05:37:32;9.75;;;5.30;;
48207;SDS011;33997;53.278;9.708;2023-03-01T05:39:57;10.02;;;5.88;;
48207;SDS011;33997;53.278;9.708;2023-03-01T05:42:23;11.30;;;6.18;;
48207;SDS011;33997;53.278;9.708;2023-03-01T05:44:48;12.15;;;6.13;;
48207;SDS011;33997;53.278;9.708;2023-03-01T05:47:13;14.77;;;6.50;;
48207;SDS011;33997;53.278;9.708;2023-03-01T05:49:39;11.70;;;5.68;;
48207;SDS011;33997;53.278;9.708;2023-03-01T05:52:04;13.55;;;6.75;;
48207;SDS011;33997;53.278;9.708;2023-03-01T05:54:30;13.98;;;6.13;;
48207;SDS011;33997;53.278;9.708;2023-03-01T05:56:55;10.85;;;5.78;;
48207;SDS011;33997;53.278;9.708;2023-03-01T05:59:21;11.18;;;5.95;;
48207;SDS011;33997;53.278;9.708;2023-03-01T06:01:46;9.73;;;5.28;;
48207;SDS011;33997;53.278;9.708;2023-03-01T06:04:12;13.45;;;5.47;;
48207;SDS011;33997;53.278;9.708;2023-03-01T06:06:37;10.60;;;5.30;;
48207;SDS011;33997;53.278;9.708;2023-03-01T06:09:04;9.02;;;4.90;;
48207;SDS011;33997;53.278;9.708;2023-03-01T06:11:33;8.50;;;5.13;;
48207;SDS011;33997;53.278;9.708;2023-03-01T06:13:59;8.30;;;4.95;;
48207;SDS011;33997;53.278;9.708;2023-03-01T06:16:25;9.32;;;4.70;;
48207;SDS011;33997;53.278;9.708;2023-03-01T06:18:50;7.97;;;4.57;;
48207;SDS011;33997;53.278;9.708;2023-03-01T06:21:15;9.43;;;4.63;;
48207;SDS011;33997;53.278;9.708;2023-03-01T06:23:41;9.88;;;4.85;;
48207;SDS011;33997;53.278;9.708;2023-03-01T06:26:07;8.10;;;4.88;;
48207;SDS011;33997;53.278;9.708;2023-03-01T06:28:34;10.82;;;4.78;;
48207;SDS011;33997;53.278;9.708;2023-03-01T06:31:00;7.57;;;4.63;;
48207;SDS011;33997;53.278;9.708;2023-03-01T06:33:26;7.95;;;4.45;;
48207;SDS011;33997;53.278;9.708;2023-03-01T06:35:53;9.80;;;5.07;;
48207;SDS011;33997;53.278;9.708;2023-03-01T06:38:20;10.88;;;4.65;;
48207;SDS011;33997;53.278;9.708;2023-03-01T06:40:50;9.57;;;4.93;;
48207;SDS011;33997;53.278;9.708;2023-03-01T06:43:17;8.52;;;4.72;;
48207;SDS011;33997;53.278;9.708;2023-03-01T06:45:42;10.35;;;4.78;;
48207;SDS011;33997;53.278;9.708;2023-03-01T06:48:08;8.13;;;4.50;;
48207;SDS011;33997;53.278;9.708;2023-03-01T06:50:33;9.15;;;4.55;;
48207;SDS011;33997;53.278;9.708;2023-03-01T06:52:59;8.02;;;4.10;;
48207;SDS011;33997;53.278;9.708;2023-03-01T06:55:25;9.32;;;4.88;;
48207;SDS011;33997;53.278;9.708;2023-03-01T06:57:55;8.38;;;4.68;;
48207;SDS011;33997;53.278;9.708;2023-03-01T07:00:21;9.50;;;4.68;;
48207;SDS011;33997;53.278;9.708;2023-03-01T07:02:47;7.93;;;4.18;;
48207;SDS011;33997;53.278;9.708;2023-03-01T07:05:13;9.15;;;4.65;;
48207;SDS011;33997;53.278;9.708;2023-03-01T07:07:38;8.23;;;4.43;;
48207;SDS011;33997;53.278;9.708;2023-03-01T07:10:04;7.00;;;4.25;;
48207;SDS011;33997;53.278;9.708;2023-03-01T07:12:30;9.30;;;4.43;;
48207;SDS011;33997;53.278;9.708;2023-03-01T07:14:55;7.72;;;4.45;;
48207;SDS011;33997;53.278;9.708;2023-03-01T07:17:21;9.55;;;4.78;;
48207;SDS011;33997;53.278;9.708;2023-03-01T07:19:46;10.32;;;4.78;;
48207;SDS011;33997;53.278;9.708;2023-03-01T07:22:12;7.68;;;4.82;;
48207;SDS011;33997;53.278;9.708;2023-03-01T07:24:37;7.80;;;4.00;;
48207;SDS011;33997;53.278;9.708;2023-03-01T07:27:03;5.65;;;3.92;;
48207;SDS011;33997;53.278;9.708;2023-03-01T07:29:28;10.57;;;4.88;;
48207;SDS011;33997;53.278;9.708;2023-03-01T07:31:54;6.80;;;3.97;;
48207;SDS011;33997;53.278;9.708;2023-03-01T07:34:19;7.97;;;4.35;;
48207;SDS011;33997;53.278;9.708;2023-03-01T07:36:45;6.20;;;3.53;;
48207;SDS011;33997;53.278;9.708;2023-03-01T07:39:11;6.07;;;3.60;;
48207;SDS011;33997;53.278;9.708;2023-03-01T07:41:36;7.85;;;3.45;;
48207;SDS011;33997;53.278;9.708;2023-03-01T07:44:02;6.40;;;3.75;;
48207;SDS011;33997;53.278;9.708;2023-03-01T07:46:28;5.90;;;3.47;;
48207;SDS011;33997;53.278;9.708;2023-03-01T07:48:53;9.38;;;4.00;;
48207;SDS011;33997;53.278;9.708;2023-03-01T07:51:18;7.25;;;3.40;;
48207;SDS011;33997;53.278;9.708;2023-03-01T07:53:47;8.18;;;3.80;;
48207;SDS011;33997;53.278;9.708;2023-03-01T07:56:14;6.72;;;3.90;;
48207;SDS011;33997;53.278;9.708;2023-03-01T07:58:43;6.38;;;3.50;;
48207;SDS011;33997;53.278;9.708;2023-03-01T08:01:10;5.07;;;3.58;;
48207;SDS011;33997;53.278;9.708;2023-03-01T08:03:37;5.80;;;3.33;;
48207;SDS011;33997;53.278;9.708;2023-03-01T08:06:04;5.88;;;3.75;;
48207;SDS011;33997;53.278;9.708;2023-03-01T08:08:31;10.35;;;3.63;;
48207;SDS011;33997;53.278;9.708;2023-03-01T08:10:58;5.40;;;3.50;;
48207;SDS011;33997;53.278;9.708;2023-03-01T08:13:24;6.82;;;3.40;;
48207;SDS011;33997;53.278;9.708;2023-03-01T08:15:50;6.45;;;3.75;;
48207;SDS011;33997;53.278;9.708;2023-03-01T08:18:17;8.55;;;3.65;;
48207;SDS011;33997;53.278;9.708;2023-03-01T08:20:43;7.47;;;3.45;;
48207;SDS011;33997;53.278;9.708;2023-03-01T08:23:09;9.05;;;3.15;;
48207;SDS011;33997;53.278;9.708;2023-03-01T08:25:35;8.88;;;3.25;;
48207;SDS011;33997;53.278;9.708;2023-03-01T08:28:01;6.15;;;3.50;;
48207;SDS011;33997;53.278;9.708;2023-03-01T08:30:27;7.78;;;3.85;;
48207;SDS011;33997;53.278;9.708;2023-03-01T08:32:52;8.10;;;3.95;;
48207;SDS011;33997;53.278;9.708;2023-03-01T08:35:18;6.45;;;2.97;;
48207;SDS011;33997;53.278;9.708;2023-03-01T08:37:45;8.45;;;3.67;;
48207;SDS011;33997;53.278;9.708;2023-03-01T08:40:10;6.90;;;3.67;;
48207;SDS011;33997;53.278;9.708;2023-03-01T08:42:38;6.30;;;3.58;;
48207;SDS011;33997;53.278;9.708;2023-03-01T08:45:04;7.35;;;3.47;;
48207;SDS011;33997;53.278;9.708;2023-03-01T08:47:31;9.27;;;3.13;;
48207;SDS011;33997;53.278;9.708;2023-03-01T08:49:58;7.70;;;3.40;;
48207;SDS011;33997;53.278;9.708;2023-03-01T08:52:24;7.80;;;4.15;;
48207;SDS011;33997;53.278;9.708;2023-03-01T08:54:49;6.70;;;3.33;;
48207;SDS011;33997;53.278;9.708;2023-03-01T08:57:15;9.52;;;5.20;;
48207;SDS011;33997;53.278;9.708;2023-03-01T08:59:40;10.95;;;3.58;;
48207;SDS011;33997;53.278;9.708;2023-03-01T09:02:10;6.03;;;3.08;;
48207;SDS011;33997;53.278;9.708;2023-03-01T09:04:37;6.20;;;3.10;;
48207;SDS011;33997;53.278;9.708;2023-03-01T09:07:03;6.82;;;3.00;;
48207;SDS011;33997;53.278;9.708;2023-03-01T09:09:28;5.88;;;2.92;;
48207;SDS011;33997;53.278;9.708;2023-03-01T09:11:54;13.93;;;4.53;;
48207;SDS011;33997;53.278;9.708;2023-03-01T09:14:20;11.13;;;3.20;;
48207;SDS011;33997;53.278;9.708;2023-03-01T09:16:45;5.47;;;3.00;;
48207;SDS011;33997;53.278;9.708;2023-03-01T09:19:11;5.55;;;2.95;;
48207;SDS011;33997;53.278;9.708;2023-03-01T09:21:37;6.10;;;3.30;;
48207;SDS011;33997;53.278;9.708;2023-03-01T09:24:02;6.03;;;2.92;;
48207;SDS011;33997;53.278;9.708;2023-03-01T09:26:28;6.85;;;3.05;;
48207;SDS011;33997;53.278;9.708;2023-03-01T09:28:54;7.15;;;3.42;;
48207;SDS011;33997;53.278;9.708;2023-03-01T09:31:21;7.18;;;3.47;;
48207;SDS011;33997;53.278;9.708;2023-03-01T09:33:48;6.47;;;3.53;;
48207;SDS011;33997;53.278;9.708;2023-03-01T09:36:16;7.80;;;3.33;;
48207;SDS011;33997;53.278;9.708;2023-03-01T09:38:47;6.70;;;3.80;;
48207;SDS011;33997;53.278;9.708;2023-03-01T09:44:20;6.82;;;3.60;;
48207;SDS011;33997;53.278;9.708;2023-03-01T09:46:47;7.75;;;3.55;;
48207;SDS011;33997;53.278;9.708;2023-03-01T09:49:19;6.72;;;3.78;;
48207;SDS011;33997;53.278;9.708;2023-03-01T09:54:47;6.72;;;3.70;;
48207;SDS011;33997;53.278;9.708;2023-03-01T10:02:43;9.18;;;4.10;;
48207;SDS011;33997;53.278;9.708;2023-03-01T10:10:52;7.75;;;4.65;;
48207;SDS011;33997;53.278;9.708;2023-03-01T10:13:31;7.95;;;4.35;;
48207;SDS011;33997;53.278;9.708;2023-03-01T10:19:15;11.38;;;5.03;;
48207;SDS011;33997;53.278;9.708;2023-03-01T10:21:47;7.38;;;4.57;;
48207;SDS011;33997;53.278;9.708;2023-03-01T10:24:17;8.35;;;5.00;;
48207;SDS011;33997;53.278;9.708;2023-03-01T10:26:56;6.70;;;4.47;;
48207;SDS011;33997;53.278;9.708;2023-03-01T10:29:25;9.82;;;5.03;;
48207;SDS011;33997;53.278;9.708;2023-03-01T10:32:10;8.88;;;4.93;;
48207;SDS011;33997;53.278;9.708;2023-03-01T10:34:36;8.00;;;4.80;;
48207;SDS011;33997;53.278;9.708;2023-03-01T10:37:12;9.43;;;5.00;;
48207;SDS011;33997;53.278;9.708;2023-03-01T10:39:54;8.13;;;4.65;;
48207;SDS011;33997;53.278;9.708;2023-03-01T10:42:33;9.65;;;4.38;;
48207;SDS011;33997;53.278;9.708;2023-03-01T10:48:08;9.82;;;5.10;;
48207;SDS011;33997;53.278;9.708;2023-03-01T10:50:38;9.45;;;5.55;;
48207;SDS011;33997;53.278;9.708;2023-03-01T10:53:18;7.10;;;4.72;;
48207;SDS011;33997;53.278;9.708;2023-03-01T10:55:56;8.52;;;5.22;;
48207;SDS011;33997;53.278;9.708;2023-03-01T10:58:58;8.52;;;5.15;;
48207;SDS011;33997;53.278;9.708;2023-03-01T11:01:30;9.13;;;5.30;;
48207;SDS011;33997;53.278;9.708;2023-03-01T11:06:36;12.48;;;5.95;;
48207;SDS011;33997;53.278;9.708;2023-03-01T11:09:18;10.17;;;6.47;;
48207;SDS011;33997;53.278;9.708;2023-03-01T11:11:46;9.27;;;5.90;;
48207;SDS011;33997;53.278;9.708;2023-03-01T11:14:17;9.35;;;6.03;;
48207;SDS011;33997;53.278;9.708;2023-03-01T11:16:47;10.07;;;5.72;;
48207;SDS011;33997;53.278;9.708;2023-03-01T11:19:23;10.75;;;6.07;;
48207;SDS011;33997;53.278;9.708;2023-03-01T11:21:54;10.52;;;5.72;;
48207;SDS011;33997;53.278;9.708;2023-03-01T11:24:29;10.43;;;5.82;;
48207;SDS011;33997;53.278;9.708;2023-03-01T11:27:03;8.90;;;5.20;;
48207;SDS011;33997;53.278;9.708;2023-03-01T11:29:37;10.45;;;6.03;;
48207;SDS011;33997;53.278;9.708;2023-03-01T11:32:07;9.45;;;5.65;;
48207;SDS011;33997;53.278;9.708;2023-03-01T11:34:37;8.50;;;5.70;;
48207;SDS011;33997;53.278;9.708;2023-03-01T11:37:23;10.77;;;6.07;;
48207;SDS011;33997;53.278;9.708;2023-03-01T11:42:37;9.65;;;6.32;;
48207;SDS011;33997;53.278;9.708;2023-03-01T11:45:11;8.90;;;6.25;;
48207;SDS011;33997;53.278;9.708;2023-03-01T11:50:34;10.15;;;6.28;;
48207;SDS011;33997;53.278;9.708;2023-03-01T11:53:04;10.38;;;6.60;;
48207;SDS011;33997;53.278;9.708;2023-03-01T11:56:00;13.07;;;6.65;;
48207;SDS011;33997;53.278;9.708;2023-03-01T12:01:32;12.43;;;6.85;;
48207;SDS011;33997;53.278;9.708;2023-03-01T12:07:35;9.95;;;6.90;;
48207;SDS011;33997;53.278;9.708;2023-03-01T12:10:56;8.75;;;6.35;;
48207;SDS011;33997;53.278;9.708;2023-03-01T12:13:42;9.95;;;6.35;;
48207;SDS011;33997;53.278;9.708;2023-03-01T12:16:23;10.65;;;6.85;;
48207;SDS011;33997;53.278;9.708;2023-03-01T12:24:55;11.73;;;7.22;;
48207;SDS011;33997;53.278;9.708;2023-03-01T12:27:38;10.77;;;7.43;;
48207;SDS011;33997;53.278;9.708;2023-03-01T12:41:32;12.10;;;7.35;;
48207;SDS011;33997;53.278;9.708;2023-03-01T12:44:19;10.30;;;6.82;;
48207;SDS011;33997;53.278;9.708;2023-03-01T12:47:23;11.63;;;6.93;;
48207;SDS011;33997;53.278;9.708;2023-03-01T12:52:43;10.23;;;6.90;;
48207;SDS011;33997;53.278;9.708;2023-03-01T12:55:18;12.20;;;6.47;;
48207;SDS011;33997;53.278;9.708;2023-03-01T12:57:49;9.95;;;6.70;;
48207;SDS011;33997;53.278;9.708;2023-03-01T13:05:48;11.38;;;6.57;;
48207;SDS011;33997;53.278;9.708;2023-03-01T13:08:29;10.07;;;5.63;;
48207;SDS011;33997;53.278;9.708;2023-03-01T13:11:02;8.43;;;6.15;;
48207;SDS011;33997;53.278;9.708;2023-03-01T13:13:30;11.75;;;6.60;;
48207;SDS011;33997;53.278;9.708;2023-03-01T13:15:56;10.80;;;6.32;;
48207;SDS011;33997;53.278;9.708;2023-03-01T13:20:49;10.45;;;6.82;;
48207;SDS011;33997;53.278;9.708;2023-03-01T13:33:44;8.38;;;5.88;;
48207;SDS011;33997;53.278;9.708;2023-03-01T13:36:10;9.73;;;6.07;;
48207;SDS011;33997;53.278;9.708;2023-03-01T13:38:58;9.57;;;6.20;;
48207;SDS011;33997;53.278;9.708;2023-03-01T13:46:43;10.02;;;6.53;;
48207;SDS011;33997;53.278;9.708;2023-03-01T13:49:11;8.40;;;5.93;;
48207;SDS011;33997;53.278;9.708;2023-03-01T13:51:45;9.65;;;6.38;;
48207;SDS011;33997;53.278;9.708;2023-03-01T13:54:12;9.55;;;6.50;;
48207;SDS011;33997;53.278;9.708;2023-03-01T13:56:39;8.82;;;6.60;;
48207;SDS011;33997;53.278;9.708;2023-03-01T13:59:06;10.18;;;5.93;;
48207;SDS011;33997;53.278;9.708;2023-03-01T14:01:42;11.18;;;6.40;;
48207;SDS011;33997;53.278;9.708;2023-03-01T14:04:21;10.55;;;6.88;;
48207;SDS011;33997;53.278;9.708;2023-03-01T14:06:48;9.75;;;6.65;;
48207;SDS011;33997;53.278;9.708;2023-03-01T14:20:25;9.90;;;6.45;;
48207;SDS011;33997;53.278;9.708;2023-03-01T14:22:52;9.57;;;6.18;;
48207;SDS011;33997;53.278;9.708;2023-03-01T14:28:05;9.27;;;6.60;;
48207;SDS011;33997;53.278;9.708;2023-03-01T14:30:44;9.80;;;6.32;;
48207;SDS011;33997;53.278;9.708;2023-03-01T14:33:28;10.52;;;6.45;;
48207;SDS011;33997;53.278;9.708;2023-03-01T14:36:00;9.68;;;5.88;;
48207;SDS011;33997;53.278;9.708;2023-03-01T14:40:58;9.57;;;6.72;;
48207;SDS011;33997;53.278;9.708;2023-03-01T14:43:26;9.20;;;5.82;;
48207;SDS011;33997;53.278;9.708;2023-03-01T14:45:54;10.25;;;6.85;;
48207;SDS011;33997;53.278;9.708;2023-03-01T14:48:19;12.55;;;6.78;;
48207;SDS011;33997;53.278;9.708;2023-03-01T14:50:46;10.45;;;6.82;;
48207;SDS011;33997;53.278;9.708;2023-03-01T14:53:16;10.30;;;6.50;;
48207;SDS011;33997;53.278;9.708;2023-03-01T14:55:46;11.65;;;7.35;;
48207;SDS011;33997;53.278;9.708;2023-03-01T14:58:14;10.93;;;7.18;;
48207;SDS011;33997;53.278;9.708;2023-03-01T15:00:46;11.45;;;7.40;;
48207;SDS011;33997;53.278;9.708;2023-03-01T15:06:06;11.90;;;7.30;;
48207;SDS011;33997;53.278;9.708;2023-03-01T15:08:33;11.02;;;7.30;;
48207;SDS011;33997;53.278;9.708;2023-03-01T15:11:02;10.23;;;7.30;;
48207;SDS011;33997;53.278;9.708;2023-03-01T15:13:34;12.90;;;7.28;;
48207;SDS011;33997;53.278;9.708;2023-03-01T15:16:04;10.82;;;7.65;;
48207;SDS011;33997;53.278;9.708;2023-03-01T15:18:34;12.82;;;7.38;;
48207;SDS011;33997;53.278;9.708;2023-03-01T15:23:51;11.13;;;7.28;;
48207;SDS011;33997;53.278;9.708;2023-03-01T15:26:22;12.30;;;7.07;;
48207;SDS011;33997;53.278;9.708;2023-03-01T15:28:51;11.88;;;7.63;;
48207;SDS011;33997;53.278;9.708;2023-03-01T15:31:22;14.18;;;7.65;;
48207;SDS011;33997;53.278;9.708;2023-03-01T15:33:49;11.77;;;7.55;;
48207;SDS011;33997;53.278;9.708;2023-03-01T15:36:32;11.25;;;7.63;;
48207;SDS011;33997;53.278;9.708;2023-03-01T15:39:30;14.15;;;7.97;;
48207;SDS011;33997;53.278;9.708;2023-03-01T15:42:06;11.80;;;8.07;;
48207;SDS011;33997;53.278;9.708;2023-03-01T15:44:33;12.80;;;8.07;;
48207;SDS011;33997;53.278;9.708;2023-03-01T15:47:01;12.18;;;7.28;;
48207;SDS011;33997;53.278;9.708;2023-03-01T15:49:46;14.40;;;8.18;;
48207;SDS011;33997;53.278;9.708;2023-03-01T15:52:13;13.30;;;7.97;;
48207;SDS011;33997;53.278;9.708;2023-03-01T15:54:54;12.98;;;8.18;;
48207;SDS011;33997;53.278;9.708;2023-03-01T15:57:21;10.73;;;7.38;;
48207;SDS011;33997;53.278;9.708;2023-03-01T15:59:46;13.10;;;7.60;;
48207;SDS011;33997;53.278;9.708;2023-03-01T16:02:12;12.65;;;8.63;;
48207;SDS011;33997;53.278;9.708;2023-03-01T16:04:38;12.70;;;7.63;;
48207;SDS011;33997;53.278;9.708;2023-03-01T16:07:04;12.52;;;8.50;;
48207;SDS011;33997;53.278;9.708;2023-03-01T16:09:30;15.48;;;9.68;;
48207;SDS011;33997;53.278;9.708;2023-03-01T16:11:55;16.83;;;11.63;;
48207;SDS011;33997;53.278;9.708;2023-03-01T16:14:21;12.73;;;8.20;;
48207;SDS011;33997;53.278;9.708;2023-03-01T16:16:47;13.85;;;9.07;;
48207;SDS011;33997;53.278;9.708;2023-03-01T16:19:15;15.40;;;8.43;;
48207;SDS011;33997;53.278;9.708;2023-03-01T16:21:41;13.80;;;8.43;;
48207;SDS011;33997;53.278;9.708;2023-03-01T16:24:08;13.20;;;8.25;;
48207;SDS011;33997;53.278;9.708;2023-03-01T16:26:36;10.93;;;7.13;;
48207;SDS011;33997;53.278;9.708;2023-03-01T16:29:02;15.05;;;8.65;;
48207;SDS011;33997;53.278;9.708;2023-03-01T16:31:28;12.02;;;7.47;;
48207;SDS011;33997;53.278;9.708;2023-03-01T16:33:58;14.07;;;7.55;;
48207;SDS011;33997;53.278;9.708;2023-03-01T16:36:25;15.60;;;7.93;;
48207;SDS011;33997;53.278;9.708;2023-03-01T16:38:52;14.23;;;8.40;;
48207;SDS011;33997;53.278;9.708;2023-03-01T16:41:20;15.65;;;8.88;;
48207;SDS011;33997;53.278;9.708;2023-03-01T16:43:46;14.80;;;8.80;;
48207;SDS011;33997;53.278;9.708;2023-03-01T16:46:14;16.48;;;9.02;;